Time;durP1;ratioP1;P1;durP2;ratioP2;P2;SDS_P1;SDS_P2;PMS_P1;PMS_P2;Temp;Humidity;BMP_temperature;BMP_pressure;BME280_temperature;BME280_humidity;BME280_pressure;Samples;Min_cycle;Max_cycle;Signal;HPM_P1;HPM_P2
2024/04/20 00:01:34;;;;;;;4.82;2.83;;;;;;;8.76;50.78;93940.66;5520918;26;19993;-64
2024/04/20 00:03:59;;;;;;;4.03;2.67;;;;;;;8.79;51.15;93937.78;5526278;26;20061;-64
2024/04/20 00:06:24;;;;;;;3.63;2.50;;;;;;;8.88;49.90;93929.19;5526571;26;19985;-64
2024/04/20 00:08:50;;;;;;;4.55;2.78;;;;;;;8.93;51.71;93931.38;5526320;26;20494;-64
2024/04/20 00:11:15;;;;;;;6.07;2.60;;;;;;;8.84;51.42;93917.50;5520662;25;20009;-64
2024/04/20 00:13:41;;;;;;;5.28;2.75;;;;;;;8.98;51.83;93923.19;5526129;26;19993;-64
2024/04/20 00:16:06;;;;;;;3.60;2.47;;;;;;;9.05;53.31;93919.09;5493674;25;20003;-64
2024/04/20 00:18:32;;;;;;;3.53;2.53;;;;;;;9.03;54.36;93924.41;5476065;26;20444;-64
2024/04/20 00:20:57;;;;;;;3.88;2.40;;;;;;;8.64;56.92;93921.06;5427926;26;19992;-64
2024/04/20 00:23:22;;;;;;;3.50;2.47;;;;;;;8.52;58.40;93910.00;5457010;26;19994;-64
2024/04/20 00:25:48;;;;;;;4.97;2.88;;;;;;;8.39;59.14;93912.06;5427566;26;19986;-64
2024/04/20 00:28:13;;;;;;;4.05;2.85;;;;;;;8.46;60.12;93908.78;5488888;26;20009;-64
2024/04/20 00:30:39;;;;;;;4.60;2.50;;;;;;;8.29;60.03;93883.53;5525720;26;19993;-64
2024/04/20 00:33:04;;;;;;;4.18;2.65;;;;;;;8.36;60.68;93917.44;5432926;26;20362;-64
2024/04/20 00:35:36;;;;;;;4.88;2.78;;;;;;;8.35;61.72;93916.63;5456982;26;20008;-64
2024/04/20 00:38:02;;;;;;;4.03;2.80;;;;;;;8.16;62.44;93904.53;5524650;26;19993;-64
2024/04/20 00:40:27;;;;;;;3.83;2.70;;;;;;;8.23;62.37;93912.56;5493789;26;20030;-64
2024/04/20 00:42:53;;;;;;;4.13;3.03;;;;;;;8.17;63.33;93903.56;5526050;26;20003;-65
2024/04/20 00:45:18;;;;;;;3.92;2.83;;;;;;;8.27;63.13;93913.91;5461727;26;20025;-64
2024/04/20 00:47:43;;;;;;;3.90;2.95;;;;;;;8.12;63.41;93910.09;5463287;26;20345;-64
2024/04/20 00:50:09;;;;;;;5.38;3.30;;;;;;;8.11;64.78;93913.59;5462959;26;20000;-64
2024/04/20 00:52:34;;;;;;;4.72;3.38;;;;;;;8.17;65.06;93908.72;5493217;26;19999;-64
2024/04/20 00:54:59;;;;;;;4.20;3.28;;;;;;;8.08;65.89;93899.22;5461395;26;20005;-64
2024/04/20 00:57:25;;;;;;;4.45;3.00;;;;;;;8.10;67.17;93906.81;5463042;26;20335;-64
2024/04/20 00:59:51;;;;;;;4.55;3.20;;;;;;;8.11;66.62;93909.28;5462655;26;19993;-64
2024/04/20 01:02:16;;;;;;;3.95;3.10;;;;;;;8.16;66.76;93906.28;5493459;26;20452;-64
2024/04/20 01:04:42;;;;;;;4.88;3.03;;;;;;;8.27;67.36;93913.91;5519670;26;19998;-64
2024/04/20 01:07:07;;;;;;;4.82;3.40;;;;;;;8.22;68.14;93900.59;5493136;26;20421;-64
2024/04/20 01:09:32;;;;;;;4.53;3.40;;;;;;;8.24;68.48;93912.41;5525463;26;19989;-65
2024/04/20 01:11:58;;;;;;;4.13;3.38;;;;;;;8.06;68.42;93909.66;5456674;26;20069;-65
2024/04/20 01:14:23;;;;;;;4.28;3.20;;;;;;;8.02;68.18;93903.16;5489829;26;20037;-64
2024/04/20 01:16:49;;;;;;;4.78;3.42;;;;;;;8.00;69.22;93904.22;5493077;26;20346;-64
2024/04/20 01:19:19;;;;;;;6.10;3.28;;;;;;;8.09;70.32;93907.78;5492871;26;20467;-64
2024/04/20 01:21:45;;;;;;;4.63;3.45;;;;;;;7.96;70.50;93902.84;5461515;26;20361;-64
2024/04/20 01:24:10;;;;;;;4.18;2.95;;;;;;;7.83;70.68;93896.16;5462442;26;20025;-64
2024/04/20 01:26:36;;;;;;;4.70;3.38;;;;;;;7.82;71.71;93907.44;5462727;26;20001;-64
2024/04/20 01:29:01;;;;;;;4.32;3.20;;;;;;;7.86;69.97;93905.41;5525100;26;20004;-64
2024/04/20 01:31:27;;;;;;;5.32;3.38;;;;;;;7.90;70.20;93911.13;5519726;26;20012;-64
2024/04/20 01:33:52;;;;;;;4.72;3.22;;;;;;;7.78;70.69;93907.84;5492776;26;20066;-65
2024/04/20 01:36:17;;;;;;;4.60;3.50;;;;;;;7.94;70.85;93915.06;5524991;26;19993;-65
2024/04/20 01:38:43;;;;;;;4.28;3.35;;;;;;;7.69;70.56;93913.78;5525076;26;20029;-64
2024/04/20 01:41:08;;;;;;;6.38;3.40;;;;;;;7.64;70.91;93911.63;5491228;26;20658;-64
2024/04/20 01:43:34;;;;;;;4.97;3.30;;;;;;;7.79;70.43;93915.47;5524709;26;19998;-64
2024/04/20 01:45:59;;;;;;;4.95;3.13;;;;;;;7.79;70.13;93920.63;5525086;26;20464;-64
2024/04/20 01:48:25;;;;;;;5.45;3.40;;;;;;;7.87;69.90;93907.03;5492294;26;20082;-64
2024/04/20 01:50:51;;;;;;;4.85;3.13;;;;;;;7.89;70.08;93899.97;5457181;26;20448;-64
2024/04/20 01:53:17;;;;;;;5.53;3.22;;;;;;;7.73;70.68;93907.41;5491481;26;20498;-64
2024/04/20 01:55:42;;;;;;;4.82;3.20;;;;;;;7.79;70.31;93891.38;5459459;26;20026;-64
2024/04/20 01:58:07;;;;;;;5.32;3.33;;;;;;;7.77;70.29;93891.53;5501566;26;20083;-64
2024/04/20 02:00:33;;;;;;;4.65;3.38;;;;;;;7.73;69.95;93897.88;5528497;26;20384;-64
2024/04/20 02:02:58;;;;;;;4.82;3.35;;;;;;;7.67;70.05;93902.78;5528272;26;19994;-64
2024/04/20 02:05:24;;;;;;;5.30;3.30;;;;;;;7.79;70.14;93897.34;5496110;26;20003;-64
2024/04/20 02:07:49;;;;;;;4.15;3.05;;;;;;;7.65;70.01;93907.25;5522586;26;20002;-64
2024/04/20 02:10:14;;;;;;;3.70;2.85;;;;;;;7.70;69.96;93893.00;5495838;26;19998;-64
2024/04/20 02:12:40;;;;;;;4.50;3.00;;;;;;;7.72;69.89;93896.25;5495654;26;20336;-64
2024/04/20 02:15:06;;;;;;;5.32;3.45;;;;;;;7.70;69.94;93894.75;5527929;26;20071;-64
2024/04/20 02:17:31;;;;;;;4.88;3.40;;;;;;;7.71;70.45;93892.03;5522219;25;20016;-64
2024/04/20 02:19:57;;;;;;;4.47;3.35;;;;;;;7.63;70.76;93902.19;5527907;26;20021;-65
2024/04/20 02:22:22;;;;;;;4.75;3.17;;;;;;;7.83;70.62;93901.31;5528066;26;20027;-64
2024/04/20 02:24:47;;;;;;;3.85;3.10;;;;;;;7.82;70.83;93904.84;5524207;26;20347;-64
2024/04/20 02:27:13;;;;;;;5.07;3.78;;;;;;;7.61;71.42;93909.28;5526001;26;20062;-64
2024/04/20 02:29:38;;;;;;;5.82;3.75;;;;;;;7.63;71.39;93914.31;5527882;25;20017;-64
2024/04/20 02:32:04;;;;;;;3.88;2.95;;;;;;;7.70;70.99;93911.09;5527866;26;20440;-64
2024/04/20 02:34:29;;;;;;;5.20;3.13;;;;;;;7.80;71.83;93918.84;5522362;26;19997;-64
2024/04/20 02:37:09;;;;;;;4.13;3.10;;;;;;;7.67;71.95;93916.53;5463366;25;20488;-68
2024/04/20 02:39:37;;;;;;;4.50;3.17;;;;;;;7.65;71.61;93910.66;5495574;26;19993;-65
2024/04/20 02:42:03;;;;;;;5.03;3.47;;;;;;;7.64;71.58;93910.81;5527457;26;20342;-65
2024/04/20 02:44:29;;;;;;;4.32;3.45;;;;;;;7.51;71.59;93901.50;5432040;26;19997;-65
2024/04/20 02:46:54;;;;;;;7.70;3.38;;;;;;;7.66;71.50;93909.72;5495464;26;19990;-65
2024/04/20 02:49:20;;;;;;;4.63;3.28;;;;;;;7.68;71.72;93918.16;5494643;26;19994;-65
2024/04/20 02:51:46;;;;;;;5.45;3.40;;;;;;;7.62;71.56;93926.44;5464602;26;19994;-65
2024/04/20 02:54:13;;;;;;;4.45;3.15;;;;;;;7.57;72.06;93916.47;5521387;26;20043;-65
2024/04/20 02:56:38;;;;;;;5.20;3.45;;;;;;;7.37;72.85;93925.09;5495031;26;20009;-65
2024/04/20 02:59:03;;;;;;;4.03;2.97;;;;;;;7.53;72.62;93925.44;5494653;26;20005;-65
2024/04/20 03:01:29;;;;;;;4.43;3.50;;;;;;;7.37;72.91;93925.09;5524344;25;20002;-65
2024/04/20 03:03:54;;;;;;;4.88;3.33;;;;;;;7.53;72.21;93933.19;5525687;26;20005;-65
2024/04/20 03:06:21;;;;;;;5.22;3.28;;;;;;;7.52;72.52;93931.56;5527604;26;20003;-65
2024/04/20 03:08:46;;;;;;;4.47;3.20;;;;;;;7.57;72.42;93933.75;5495122;26;20008;-65
2024/04/20 03:11:12;;;;;;;4.30;3.17;;;;;;;7.72;72.13;93935.03;5521578;26;20370;-65
2024/04/20 03:13:37;;;;;;;4.00;3.20;;;;;;;7.88;72.10;93941.47;5527264;26;20061;-65
2024/04/20 03:16:04;;;;;;;5.68;3.83;;;;;;;7.82;71.37;93935.88;5494806;26;20381;-65
2024/04/20 03:18:32;;;;;;;4.97;3.60;;;;;;;7.90;70.96;93945.56;5494098;26;19995;-65
2024/04/20 03:20:58;;;;;;;4.13;3.45;;;;;;;7.94;70.92;93934.03;5491313;26;19993;-65
2024/04/20 03:23:23;;;;;;;4.68;3.20;;;;;;;8.06;72.64;93961.41;5494526;26;20005;-65
2024/04/20 03:25:49;;;;;;;5.93;4.25;;;;;;;7.83;71.41;93960.81;5527105;26;20005;-65
2024/04/20 03:28:14;;;;;;;4.80;3.58;;;;;;;7.84;71.54;93959.03;5493696;26;20439;-66
2024/04/20 03:30:39;;;;;;;6.07;4.03;;;;;;;7.92;72.57;93961.78;5462226;26;19997;-66
2024/04/20 03:33:05;;;;;;;5.28;4.05;;;;;;;8.01;70.28;93955.81;5491586;26;20064;-66
2024/04/20 03:35:30;;;;;;;5.10;3.78;;;;;;;8.04;70.97;93958.13;5525618;26;20029;-65
2024/04/20 03:37:56;;;;;;;7.55;4.18;;;;;;;7.83;69.89;93945.28;5495075;26;20009;-66
2024/04/20 03:40:21;;;;;;;6.50;4.72;;;;;;;7.87;69.61;93957.94;5522657;26;20492;-67
2024/04/20 03:42:47;;;;;;;6.38;4.20;;;;;;;7.96;69.38;93957.16;5525102;25;20435;-66
2024/04/20 03:45:12;;;;;;;6.20;4.30;;;;;;;7.81;68.08;93943.78;5492505;26;20354;-66
2024/04/20 03:47:38;;;;;;;7.45;4.97;;;;;;;7.67;67.64;93957.88;5495864;26;20001;-66
2024/04/20 03:50:03;;;;;;;7.95;4.85;;;;;;;7.79;67.99;93953.44;5521915;26;19997;-66
2024/04/20 03:52:29;;;;;;;10.35;5.85;;;;;;;7.56;59.77;93961.38;5493476;26;19990;-66
2024/04/20 03:54:54;;;;;;;8.10;5.32;;;;;;;7.55;61.44;93959.75;5525833;26;19989;-66
2024/04/20 03:57:19;;;;;;;9.30;5.50;;;;;;;7.57;61.80;93960.41;5489453;26;20045;-66
2024/04/20 03:59:45;;;;;;;8.25;5.63;;;;;;;7.61;57.62;93964.38;5525875;26;20001;-67
2024/04/20 04:02:10;;;;;;;7.15;5.15;;;;;;;7.58;58.15;93975.00;5525117;25;20001;-66
2024/04/20 04:04:36;;;;;;;8.18;5.28;;;;;;;7.48;58.09;93979.28;5490897;26;20008;-66
2024/04/20 04:07:02;;;;;;;6.25;4.53;;;;;;;7.44;58.37;93983.09;5516724;26;20328;-66
2024/04/20 04:09:27;;;;;;;8.70;5.75;;;;;;;7.33;59.12;93978.81;5523211;26;19990;-66
2024/04/20 04:11:53;;;;;;;9.60;5.55;;;;;;;7.47;59.81;93984.59;5525261;25;20009;-66
2024/04/20 04:14:19;;;;;;;8.93;5.50;;;;;;;7.64;59.65;93975.44;5521340;26;20033;-66
2024/04/20 04:16:45;;;;;;;8.52;5.30;;;;;;;7.67;59.92;93988.91;5522967;25;20004;-66
2024/04/20 04:19:10;;;;;;;8.77;5.28;;;;;;;7.67;61.32;93990.69;5478205;26;19993;-66
2024/04/20 04:21:35;;;;;;;7.35;5.03;;;;;;;7.63;60.00;93987.50;5524803;25;20447;-66
2024/04/20 04:24:01;;;;;;;7.78;4.97;;;;;;;7.60;62.38;93991.19;5519187;26;20005;-65
2024/04/20 04:26:27;;;;;;;8.65;4.72;;;;;;;7.61;65.72;93986.84;5524995;25;20060;-66
2024/04/20 04:28:52;;;;;;;7.60;5.40;;;;;;;7.48;65.41;93994.78;5456242;26;19990;-66
2024/04/20 04:31:19;;;;;;;9.65;5.00;;;;;;;7.44;65.53;93988.25;5474251;26;20000;-66
2024/04/20 04:33:44;;;;;;;6.13;4.93;;;;;;;7.32;70.11;93977.16;5492372;26;20001;-66
2024/04/20 04:36:10;;;;;;;6.05;4.78;;;;;;;7.44;71.18;93987.41;5514267;25;19997;-66
2024/04/20 04:38:35;;;;;;;8.07;5.57;;;;;;;7.27;70.45;93993.97;5524816;25;20017;-66
2024/04/20 04:41:01;;;;;;;8.05;5.50;;;;;;;7.18;71.14;93990.41;5516153;26;20330;-66
2024/04/20 04:43:26;;;;;;;9.05;6.00;;;;;;;7.16;72.56;93980.22;5460525;26;20004;-66
2024/04/20 04:45:51;;;;;;;8.70;6.32;;;;;;;7.35;72.77;93976.94;5524809;26;20001;-66
2024/04/20 04:48:22;;;;;;;8.77;6.25;;;;;;;7.14;73.21;93979.50;5524640;25;20041;-66
2024/04/20 04:50:47;;;;;;;8.97;6.00;;;;;;;7.33;75.01;93972.81;5520454;26;20017;-66
2024/04/20 04:53:13;;;;;;;9.50;6.53;;;;;;;7.11;74.02;93972.03;5519017;25;20005;-66
2024/04/20 04:55:39;;;;;;;10.07;6.50;;;;;;;7.16;74.23;93953.56;5497584;25;20038;-66
2024/04/20 04:58:05;;;;;;;9.13;6.55;;;;;;;7.41;75.18;93987.66;5461040;26;20646;-66
2024/04/20 05:00:30;;;;;;;9.25;5.90;;;;;;;7.50;74.99;93989.50;5519101;25;20001;-66
2024/04/20 05:02:56;;;;;;;9.90;6.78;;;;;;;7.38;75.58;93983.56;5521490;25;19997;-66
2024/04/20 05:05:21;;;;;;;10.07;6.43;;;;;;;7.42;75.87;93984.97;5467788;25;20075;-67
2024/04/20 05:07:47;;;;;;;12.43;7.40;;;;;;;7.24;76.00;93982.13;5496713;25;20443;-66
2024/04/20 05:10:12;;;;;;;11.20;6.68;;;;;;;7.44;76.30;93975.34;5492179;26;20297;-66
2024/04/20 05:12:38;;;;;;;9.88;7.07;;;;;;;7.35;73.89;93976.09;5521778;26;20002;-66
2024/04/20 05:15:04;;;;;;;10.35;6.47;;;;;;;7.47;73.57;93982.00;5494751;26;20013;-66
2024/04/20 05:17:30;;;;;;;9.75;6.00;;;;;;;7.49;73.14;93973.16;5524149;25;20069;-66
2024/04/20 05:19:55;;;;;;;13.57;6.55;;;;;;;7.71;73.24;93969.59;5517155;26;20006;-66
2024/04/20 05:22:21;;;;;;;10.02;5.93;;;;;;;7.76;72.50;93967.44;5522490;25;20042;-66
2024/04/20 05:24:46;;;;;;;8.52;6.20;;;;;;;7.88;72.55;93969.91;5523329;26;20041;-68
2024/04/20 05:27:11;;;;;;;8.27;6.05;;;;;;;7.75;72.11;93965.00;5464022;26;20055;-66
2024/04/20 05:29:37;;;;;;;10.93;6.72;;;;;;;7.56;73.52;93956.19;5521813;26;20042;-66
2024/04/20 05:32:02;;;;;;;10.88;6.43;;;;;;;7.93;73.41;93960.81;5487494;26;19998;-66
2024/04/20 05:34:28;;;;;;;9.80;7.28;;;;;;;8.14;73.12;93962.53;5460839;26;20006;-66
2024/04/20 05:36:53;;;;;;;10.98;7.20;;;;;;;8.20;71.73;93965.38;5516056;25;20452;-67
2024/04/20 05:39:19;;;;;;;10.40;6.95;;;;;;;8.05;70.50;93951.19;5490552;26;20069;-66
2024/04/20 05:41:44;;;;;;;8.90;6.22;;;;;;;8.19;70.57;93971.53;5521382;25;19998;-66
2024/04/20 05:44:10;;;;;;;8.98;6.25;;;;;;;8.32;69.86;93966.06;5459362;26;19993;-66
2024/04/20 05:46:35;;;;;;;9.65;6.50;;;;;;;8.41;69.38;93962.75;5465154;26;20001;-66
2024/04/20 05:49:00;;;;;;;11.38;6.68;;;;;;;8.43;68.06;93966.00;5521416;26;20440;-65
2024/04/20 05:51:26;;;;;;;12.18;6.82;;;;;;;8.27;69.29;93960.47;5517281;25;20472;-65
2024/04/20 05:53:51;;;;;;;9.80;7.13;;;;;;;8.25;68.10;93946.88;5490800;26;20033;-66
2024/04/20 05:56:17;;;;;;;9.48;7.07;;;;;;;8.32;66.74;93944.56;5489122;25;20491;-67
2024/04/20 05:58:42;;;;;;;9.45;6.65;;;;;;;8.43;66.32;93947.88;5516516;26;20037;-66
2024/04/20 06:01:08;;;;;;;10.93;7.13;;;;;;;8.13;65.93;93955.69;5521902;25;20032;-65
2024/04/20 06:03:33;;;;;;;10.38;6.63;;;;;;;8.38;65.20;93937.06;5520444;26;20001;-66
2024/04/20 06:05:59;;;;;;;8.30;6.40;;;;;;;8.49;64.49;93949.91;5489925;25;20018;-66
2024/04/20 06:08:24;;;;;;;9.02;6.10;;;;;;;8.52;63.73;93935.88;5523982;25;20001;-66
2024/04/20 06:10:57;;;;;;;9.35;6.28;;;;;;;8.72;60.44;93937.53;5492640;25;20062;-66
2024/04/20 06:13:22;;;;;;;9.20;6.00;;;;;;;8.66;63.70;93947.59;5458452;26;20066;-65
2024/04/20 06:15:47;;;;;;;9.38;6.32;;;;;;;8.76;61.58;93952.81;5518064;26;19997;-66
2024/04/20 06:18:13;;;;;;;10.02;6.45;;;;;;;8.79;64.16;93953.34;5458671;26;20007;-66
2024/04/20 06:20:40;;;;;;;9.05;6.07;;;;;;;8.91;64.39;93957.44;5472230;26;19990;-67
2024/04/20 06:23:06;;;;;;;8.43;6.15;;;;;;;9.11;61.72;93959.97;5506053;25;20005;-65
2024/04/20 06:25:31;;;;;;;9.23;6.20;;;;;;;8.99;61.16;93959.31;5518850;26;20013;-65
2024/04/20 06:27:57;;;;;;;7.80;6.07;;;;;;;8.89;62.03;93961.94;5512770;25;20005;-65
2024/04/20 06:30:22;;;;;;;9.00;6.53;;;;;;;8.82;61.63;93950.47;5523007;26;19994;-65
2024/04/20 06:32:49;;;;;;;10.13;6.00;;;;;;;8.77;61.42;93957.81;5523019;25;20024;-66
2024/04/20 06:35:15;;;;;;;9.02;6.15;;;;;;;8.87;61.89;93957.84;5520448;26;19997;-65
2024/04/20 06:37:40;;;;;;;8.98;6.18;;;;;;;8.94;61.90;93964.94;5465590;26;20015;-65
2024/04/20 06:40:06;;;;;;;7.43;5.43;;;;;;;8.92;59.52;93972.00;5497183;26;20435;-65
2024/04/20 06:42:32;;;;;;;7.82;5.53;;;;;;;9.08;60.28;93975.81;5519688;25;19994;-65
2024/04/20 06:44:57;;;;;;;10.43;7.03;;;;;;;8.90;59.62;93958.38;5491593;26;19997;-64
2024/04/20 06:47:23;;;;;;;8.07;5.72;;;;;;;9.04;61.04;93970.09;5494576;26;19994;-65
2024/04/20 06:49:55;;;;;;;7.43;5.55;;;;;;;8.94;62.33;93957.16;5483372;26;19990;-66
2024/04/20 06:52:21;;;;;;;6.80;5.13;;;;;;;9.28;59.58;93964.47;5521492;25;20041;-65
2024/04/20 06:54:49;;;;;;;8.82;5.35;;;;;;;9.47;57.94;93955.00;5530880;25;20395;-65
2024/04/20 06:57:15;;;;;;;7.80;5.93;;;;;;;9.43;59.46;93958.84;5495404;26;20037;-65
2024/04/20 06:59:40;;;;;;;8.30;5.13;;;;;;;9.58;57.16;93953.06;5485688;26;20447;-65
2024/04/20 07:02:05;;;;;;;6.85;4.88;;;;;;;9.63;56.31;93960.41;5514327;25;20444;-65
2024/04/20 07:04:31;;;;;;;7.28;5.18;;;;;;;9.45;57.80;93951.75;5525425;26;20428;-65
2024/04/20 07:06:56;;;;;;;7.13;4.82;;;;;;;9.54;54.25;93951.69;5526080;26;20037;-65
2024/04/20 07:09:22;;;;;;;9.55;4.80;;;;;;;9.39;57.71;93959.13;5492166;26;20002;-65
2024/04/20 07:11:47;;;;;;;8.85;5.18;;;;;;;9.42;52.88;93957.19;5492161;26;20009;-65
2024/04/20 07:14:12;;;;;;;7.00;4.82;;;;;;;9.52;52.85;93963.97;5524009;26;20098;-65
2024/04/20 07:16:38;;;;;;;7.00;4.60;;;;;;;9.62;52.22;93958.78;5527139;25;19997;-65
2024/04/20 07:19:03;;;;;;;8.38;5.15;;;;;;;9.67;52.28;93971.28;5490669;26;20065;-65
2024/04/20 07:21:29;;;;;;;6.95;4.60;;;;;;;9.82;50.58;93960.31;5524959;25;20001;-64
2024/04/20 07:23:54;;;;;;;7.38;4.60;;;;;;;9.90;49.54;93974.38;5522779;26;20009;-65
2024/04/20 07:26:19;;;;;;;6.63;4.80;;;;;;;10.07;50.02;93968.41;5525017;26;20513;-64
2024/04/20 07:28:45;;;;;;;6.93;4.32;;;;;;;10.05;49.84;93965.13;5524456;26;19989;-65
2024/04/20 07:31:10;;;;;;;7.43;4.03;;;;;;;10.24;49.33;93953.84;5453331;26;20002;-65
2024/04/20 07:33:36;;;;;;;6.15;4.28;;;;;;;10.34;48.74;93959.00;5457142;26;20006;-65
2024/04/20 07:36:01;;;;;;;4.90;3.83;;;;;;;10.29;51.10;93952.47;5502799;26;20116;-65
2024/04/20 07:38:27;;;;;;;6.35;3.83;;;;;;;10.17;49.22;93919.88;5525540;25;19998;-65
2024/04/20 07:40:52;;;;;;;6.10;3.72;;;;;;;10.50;48.66;93954.81;5520157;26;19994;-65
2024/04/20 07:43:17;;;;;;;4.97;3.70;;;;;;;10.38;50.90;93949.97;5521124;25;20005;-65
2024/04/20 07:45:43;;;;;;;5.47;3.80;;;;;;;10.25;49.92;93951.09;5524957;25;20004;-65
2024/04/20 07:48:08;;;;;;;6.15;4.22;;;;;;;10.28;49.30;93953.44;5461296;26;20332;-65
2024/04/20 07:50:34;;;;;;;5.72;3.72;;;;;;;10.56;50.03;93947.38;5465373;26;20509;-64
2024/04/20 07:52:59;;;;;;;6.97;4.53;;;;;;;10.91;49.78;93954.34;5479961;26;20007;-65
2024/04/20 07:55:25;;;;;;;6.07;4.22;;;;;;;10.93;49.42;93966.22;5466583;26;20025;-65
2024/04/20 07:57:50;;;;;;;7.20;5.38;;;;;;;10.95;48.41;93960.88;5459558;26;20005;-65
2024/04/20 08:00:16;;;;;;;5.10;3.88;;;;;;;10.81;47.41;93951.84;5528311;25;20012;-64
2024/04/20 08:02:43;;;;;;;5.18;4.03;;;;;;;10.83;48.02;93949.88;5544972;25;20463;-65
2024/04/20 08:05:08;;;;;;;5.22;3.65;;;;;;;11.33;45.13;93948.47;5462137;26;20004;-65
2024/04/20 08:07:34;;;;;;;5.45;4.22;;;;;;;11.01;47.32;93943.88;5493464;26;19998;-65
2024/04/20 08:09:59;;;;;;;5.70;3.97;;;;;;;11.03;47.25;93944.53;5489740;25;19997;-65
2024/04/20 08:12:25;;;;;;;4.78;4.13;;;;;;;11.16;48.08;93940.56;5488748;26;20006;-65
2024/04/20 08:14:50;;;;;;;5.65;3.60;;;;;;;11.47;47.31;93936.69;5460624;26;20033;-64
2024/04/20 08:17:16;;;;;;;5.28;3.78;;;;;;;11.53;46.48;93947.31;5432168;26;20353;-65
2024/04/20 08:19:41;;;;;;;5.18;3.80;;;;;;;11.37;45.83;93947.22;5521313;25;20033;-65
2024/04/20 08:22:07;;;;;;;6.32;3.75;;;;;;;11.43;45.75;93945.78;5458211;26;20001;-65
2024/04/20 08:24:32;;;;;;;5.35;3.97;;;;;;;11.50;46.57;93945.00;5525308;26;20001;-65
2024/04/20 08:26:58;;;;;;;5.30;4.38;;;;;;;11.42;46.43;93939.75;5495322;25;19997;-65
2024/04/20 08:29:24;;;;;;;7.03;3.80;;;;;;;11.78;45.20;93942.22;5490757;25;20105;-64
2024/04/20 08:31:50;;;;;;;5.78;3.75;;;;;;;12.23;42.70;93933.31;5519759;25;20470;-68
2024/04/20 08:34:15;;;;;;;6.18;3.67;;;;;;;12.12;45.27;93941.44;5464732;26;20008;-64
2024/04/20 08:36:40;;;;;;;4.82;3.63;;;;;;;12.30;44.35;93936.94;5495172;26;20037;-65
2024/04/20 08:39:06;;;;;;;5.20;3.50;;;;;;;12.13;43.94;93932.66;5491899;26;20005;-64
2024/04/20 08:41:32;;;;;;;7.20;3.30;;;;;;;12.54;43.04;93933.59;5522996;25;20001;-64
2024/04/20 08:44:02;;;;;;;4.47;3.78;;;;;;;12.16;43.20;93937.56;5457424;26;20001;-63
2024/04/20 08:46:27;;;;;;;4.95;3.60;;;;;;;12.06;43.94;93925.50;5482676;26;20029;-64
2024/04/20 08:48:53;;;;;;;6.72;3.72;;;;;;;12.41;43.97;93936.63;5495782;26;20069;-64
2024/04/20 08:51:20;;;;;;;5.60;3.75;;;;;;;11.54;44.13;93909.13;5486296;25;20034;-64
2024/04/20 08:53:47;;;;;;;4.82;3.75;;;;;;;11.82;43.86;93931.38;5496257;26;20001;-64
2024/04/20 08:56:12;;;;;;;5.22;3.90;;;;;;;12.29;45.04;93919.69;5490345;25;20008;-64
2024/04/20 08:58:38;;;;;;;4.25;3.20;;;;;;;12.72;44.97;93925.63;5492161;26;20005;-64
2024/04/20 09:01:04;;;;;;;4.88;3.45;;;;;;;12.71;43.30;93916.19;5428679;26;20001;-64
2024/04/20 09:03:29;;;;;;;4.47;3.28;;;;;;;12.43;43.71;93926.88;5489608;26;20005;-64
2024/04/20 09:05:55;;;;;;;4.68;3.67;;;;;;;12.61;45.00;93926.75;5531574;25;20084;-64
2024/04/20 09:08:21;;;;;;;4.47;3.63;;;;;;;12.78;43.36;93916.34;5431839;26;20073;-64
2024/04/20 09:10:46;;;;;;;4.53;3.38;;;;;;;12.37;43.99;93930.13;5490095;26;20013;-65
2024/04/20 09:13:15;;;;;;;3.90;2.97;;;;;;;12.73;42.04;93928.06;5494760;26;20002;-64
2024/04/20 09:15:44;;;;;;;4.63;3.30;;;;;;;12.56;44.02;93923.78;5524705;25;19994;-63
2024/04/20 09:18:09;;;;;;;4.93;3.67;;;;;;;12.41;43.27;93923.63;5519445;25;20320;-64
2024/04/20 09:20:35;;;;;;;5.50;3.08;;;;;;;12.72;43.16;93923.00;5521237;26;20003;-63
2024/04/20 09:23:08;;;;;;;5.53;4.22;;;;;;;12.81;44.22;93922.03;5518761;25;20645;-64
2024/04/20 09:25:35;;;;;;;6.03;3.58;;;;;;;13.10;42.86;93918.16;5523820;26;20009;-65
2024/04/20 09:28:00;;;;;;;5.43;3.03;;;;;;;13.16;41.83;93910.47;5490673;26;20033;-64
2024/04/20 09:30:26;;;;;;;3.97;3.10;;;;;;;12.86;41.12;93914.53;5523643;26;20398;-63
2024/04/20 09:32:51;;;;;;;4.40;2.80;;;;;;;12.96;42.93;93914.41;5521377;25;20431;-65
2024/04/20 09:35:18;;;;;;;3.97;3.20;;;;;;;12.66;42.05;93918.44;5521685;26;19994;-64
2024/04/20 09:37:44;;;;;;;6.07;3.30;;;;;;;12.67;42.43;93920.88;5518467;26;19997;-64
2024/04/20 09:40:09;;;;;;;4.53;2.90;;;;;;;12.74;41.29;93918.47;5522506;26;20007;-63
2024/04/20 09:42:35;;;;;;;4.03;2.90;;;;;;;12.64;41.51;93925.59;5459638;26;19994;-64
2024/04/20 09:45:00;;;;;;;4.75;3.25;;;;;;;12.86;42.25;93908.53;5523482;26;19998;-64
2024/04/20 09:47:26;;;;;;;4.93;3.28;;;;;;;13.05;42.52;93915.22;5517303;25;20012;-63
2024/04/20 09:49:52;;;;;;;4.03;2.95;;;;;;;12.97;40.33;93902.97;5486753;26;19993;-64
2024/04/20 09:52:21;;;;;;;3.90;2.70;;;;;;;12.97;41.73;93914.22;5459499;26;20017;-64
2024/04/20 09:54:56;;;;;;;3.40;2.67;;;;;;;13.37;39.39;93901.34;5457486;26;20001;-63
2024/04/20 09:57:23;;;;;;;4.07;2.83;;;;;;;13.50;40.73;93898.22;5489466;26;19997;-64
2024/04/20 09:59:48;;;;;;;5.00;2.70;;;;;;;13.81;39.21;93893.88;5486278;26;20070;-63
2024/04/20 10:02:14;;;;;;;4.13;2.63;;;;;;;13.83;40.34;93896.31;5450089;26;20298;-63
2024/04/20 10:04:40;;;;;;;6.00;3.67;;;;;;;13.49;40.50;93897.41;5459588;26;20009;-63
2024/04/20 10:07:05;;;;;;;6.07;3.78;;;;;;;13.37;42.31;93896.97;5491406;26;20435;-63
2024/04/20 10:09:32;;;;;;;6.30;3.70;;;;;;;13.34;42.19;93892.03;5493573;26;20058;-64
2024/04/20 10:11:57;;;;;;;4.90;3.78;;;;;;;13.18;42.42;93892.88;5524647;25;20443;-63
2024/04/20 10:14:24;;;;;;;4.35;3.53;;;;;;;13.06;42.14;93890.75;5487641;26;20073;-64
2024/04/20 10:16:49;;;;;;;5.72;3.40;;;;;;;13.20;41.78;93882.25;5544720;25;20090;-63
2024/04/20 10:19:18;;;;;;;4.85;3.47;;;;;;;13.16;41.28;93894.00;5469829;26;20031;-64
2024/04/20 10:21:44;;;;;;;3.70;3.05;;;;;;;13.34;41.42;93883.41;5524190;25;20061;-63
2024/04/20 10:24:09;;;;;;;5.03;3.92;;;;;;;13.17;42.32;93875.56;5521820;26;20009;-64
2024/04/20 10:26:35;;;;;;;4.32;3.17;;;;;;;13.32;41.12;93877.56;5462918;26;20416;-64
2024/04/20 10:29:20;;;;;;;5.32;4.13;;;;;;;13.36;42.24;93879.66;5494700;26;20008;-64
2024/04/20 10:31:54;;;;;;;4.65;3.38;;;;;;;13.31;42.49;93876.72;5518794;25;20013;-63
2024/04/20 10:34:25;;;;;;;4.32;3.20;;;;;;;13.99;40.77;93871.97;5482928;26;20451;-64
2024/04/20 10:37:02;;;;;;;8.20;4.57;;;;;;;13.37;41.39;93868.25;5493601;26;19998;-63
2024/04/20 10:39:28;;;;;;;4.28;3.22;;;;;;;13.38;38.98;93858.63;5467524;26;20025;-63
2024/04/20 10:42:04;;;;;;;4.57;3.30;;;;;;;13.81;39.53;93861.75;5452821;26;20015;-63
2024/04/20 10:44:29;;;;;;;3.70;2.50;;;;;;;13.79;37.88;93864.53;5464114;26;19997;-63
2024/04/20 10:46:55;;;;;;;3.88;3.20;;;;;;;13.70;39.96;93870.75;5494690;26;20408;-63
2024/04/20 10:49:24;;;;;;;5.00;3.40;;;;;;;13.44;39.55;93868.41;5492890;26;20001;-63
2024/04/20 10:51:54;;;;;;;3.55;2.90;;;;;;;13.53;39.39;93862.16;5489381;26;20087;-63
2024/04/20 10:54:20;;;;;;;3.13;2.53;;;;;;;13.66;39.57;93863.44;5487286;26;20017;-64
2024/04/20 10:56:45;;;;;;;3.25;2.38;;;;;;;13.43;39.21;93858.13;5556368;25;19993;-64
2024/04/20 10:59:11;;;;;;;3.97;2.90;;;;;;;13.56;39.94;93848.78;5494928;26;20080;-63
2024/04/20 11:01:39;;;;;;;3.65;3.05;;;;;;;13.60;39.85;93862.31;5457824;25;20096;-63
2024/04/20 11:04:05;;;;;;;3.50;2.80;;;;;;;13.59;39.17;93869.31;5503608;26;19998;-63
2024/04/20 11:06:30;;;;;;;4.93;3.17;;;;;;;13.62;39.51;93862.94;5492933;26;20487;-63
2024/04/20 11:08:56;;;;;;;4.10;3.20;;;;;;;13.54;39.20;93869.03;5484173;25;19994;-63
2024/04/20 11:11:21;;;;;;;3.90;2.85;;;;;;;13.86;38.09;93860.25;5523764;25;20332;-63
2024/04/20 11:13:59;;;;;;;3.40;2.80;;;;;;;13.83;38.79;93857.97;5522147;26;20035;-63
2024/04/20 11:16:26;;;;;;;9.20;8.25;;;;;;;13.57;39.72;93865.28;5463210;26;20069;-63
2024/04/20 11:18:52;;;;;;;4.50;3.47;;;;;;;13.51;38.92;93858.09;5492442;26;20004;-63
2024/04/20 11:21:17;;;;;;;4.65;2.85;;;;;;;13.65;37.51;93854.81;5468637;25;20013;-63
2024/04/20 11:23:42;;;;;;;3.85;2.97;;;;;;;13.85;39.01;93865.66;5496697;26;20046;-63
2024/04/20 11:26:08;;;;;;;5.13;2.97;;;;;;;13.59;39.14;93868.50;5543935;25;20442;-63
2024/04/20 11:28:33;;;;;;;6.25;3.28;;;;;;;13.32;38.55;93856.69;5486607;26;19994;-63
2024/04/20 11:31:01;;;;;;;5.70;2.90;;;;;;;13.11;38.25;93854.56;5458021;26;20010;-63
2024/04/20 11:33:26;;;;;;;4.75;2.75;;;;;;;13.24;38.73;93857.50;5513764;26;19997;-63